sensor_id;sensor_type;location;lat;lon;timestamp;pressure;altitude;pressure_sealevel;temperature;humidity
34328;BME280;20588;48.840;10.064;2024-02-28T00:02:12;96370.78;;;7.00;nan
34328;BME280;20588;48.840;10.064;2024-02-28T00:04:40;96369.41;;;6.98;nan
34328;BME280;20588;48.840;10.064;2024-02-28T00:07:07;96377.84;;;6.98;nan
34328;BME280;20588;48.840;10.064;2024-02-28T00:09:34;96377.28;;;6.96;nan
34328;BME280;20588;48.840;10.064;2024-02-28T00:12:00;96379.03;;;6.96;nan
34328;BME280;20588;48.840;10.064;2024-02-28T00:14:26;96376.69;;;6.94;nan
34328;BME280;20588;48.840;10.064;2024-02-28T00:16:52;96379.84;;;6.96;nan
34328;BME280;20588;48.840;10.064;2024-02-28T00:19:18;96382.41;;;6.96;nan
34328;BME280;20588;48.840;10.064;2024-02-28T00:21:46;96375.50;;;6.97;nan
34328;BME280;20588;48.840;10.064;2024-02-28T00:24:12;96370.00;;;6.93;nan
34328;BME280;20588;48.840;10.064;2024-02-28T00:26:41;96373.31;;;6.94;nan
34328;BME280;20588;48.840;10.064;2024-02-28T00:29:08;96373.50;;;6.92;nan
34328;BME280;20588;48.840;10.064;2024-02-28T00:31:34;96369.38;;;6.91;nan
34328;BME280;20588;48.840;10.064;2024-02-28T00:34:01;96371.13;;;6.91;nan
34328;BME280;20588;48.840;10.064;2024-02-28T00:36:27;96366.03;;;6.91;nan
34328;BME280;20588;48.840;10.064;2024-02-28T00:38:53;96365.25;;;6.90;nan
34328;BME280;20588;48.840;10.064;2024-02-28T00:41:19;96370.38;;;6.90;nan
34328;BME280;20588;48.840;10.064;2024-02-28T00:43:45;96373.88;;;6.89;nan
34328;BME280;20588;48.840;10.064;2024-02-28T00:46:11;96371.34;;;6.89;nan
34328;BME280;20588;48.840;10.064;2024-02-28T00:48:38;96368.00;;;6.89;nan
34328;BME280;20588;48.840;10.064;2024-02-28T00:51:05;96368.00;;;6.89;nan
34328;BME280;20588;48.840;10.064;2024-02-28T00:53:31;96377.63;;;6.87;nan
34328;BME280;20588;48.840;10.064;2024-02-28T00:55:57;96369.53;;;6.83;nan
34328;BME280;20588;48.840;10.064;2024-02-28T00:58:23;96372.69;;;6.85;nan
34328;BME280;20588;48.840;10.064;2024-02-28T01:00:49;96370.34;;;6.84;nan
34328;BME280;20588;48.840;10.064;2024-02-28T01:03:15;96363.47;;;6.84;nan
34328;BME280;20588;48.840;10.064;2024-02-28T01:05:42;96368.78;;;6.83;nan
34328;BME280;20588;48.840;10.064;2024-02-28T01:08:09;96375.63;;;6.82;nan
34328;BME280;20588;48.840;10.064;2024-02-28T01:10:35;96379.94;;;6.82;nan
34328;BME280;20588;48.840;10.064;2024-02-28T01:13:02;96380.16;;;6.80;nan
34328;BME280;20588;48.840;10.064;2024-02-28T01:15:28;96371.50;;;6.81;nan
34328;BME280;20588;48.840;10.064;2024-02-28T01:17:54;96381.94;;;6.80;nan
34328;BME280;20588;48.840;10.064;2024-02-28T01:20:20;96372.66;;;6.79;nan
34328;BME280;20588;48.840;10.064;2024-02-28T01:22:46;96374.63;;;6.77;nan
34328;BME280;20588;48.840;10.064;2024-02-28T01:25:13;96372.84;;;6.77;nan
34328;BME280;20588;48.840;10.064;2024-02-28T01:27:39;96373.66;;;6.78;nan
34328;BME280;20588;48.840;10.064;2024-02-28T01:30:06;96371.28;;;6.76;nan
34328;BME280;20588;48.840;10.064;2024-02-28T01:32:32;96373.03;;;6.76;nan
34328;BME280;20588;48.840;10.064;2024-02-28T01:34:58;96373.22;;;6.74;nan
34328;BME280;20588;48.840;10.064;2024-02-28T01:37:24;96370.09;;;6.72;nan
34328;BME280;20588;48.840;10.064;2024-02-28T01:39:50;96380.91;;;6.74;nan
34328;BME280;20588;48.840;10.064;2024-02-28T01:42:16;96378.53;;;6.73;nan
34328;BME280;20588;48.840;10.064;2024-02-28T01:44:46;96381.09;;;6.73;nan
34328;BME280;20588;48.840;10.064;2024-02-28T01:47:13;96378.75;;;6.78;nan
34328;BME280;20588;48.840;10.064;2024-02-28T01:49:40;96383.06;;;6.71;nan
34328;BME280;20588;48.840;10.064;2024-02-28T01:52:08;96381.47;;;6.63;nan
34328;BME280;20588;48.840;10.064;2024-02-28T01:54:35;96394.63;;;6.60;nan
34328;BME280;20588;48.840;10.064;2024-02-28T01:57:01;96398.13;;;6.59;nan
34328;BME280;20588;48.840;10.064;2024-02-28T01:59:28;96405.59;;;6.61;nan
34328;BME280;20588;48.840;10.064;2024-02-28T02:01:56;96403.84;;;6.61;nan
34328;BME280;20588;48.840;10.064;2024-02-28T02:04:22;96411.34;;;6.63;nan
34328;BME280;20588;48.840;10.064;2024-02-28T02:06:48;96414.69;;;6.63;nan
34328;BME280;20588;48.840;10.064;2024-02-28T02:09:15;96416.69;;;6.68;nan
34328;BME280;20588;48.840;10.064;2024-02-28T02:11:41;96420.38;;;6.65;nan
34328;BME280;20588;48.840;10.064;2024-02-28T02:14:08;96424.72;;;6.65;nan
34328;BME280;20588;48.840;10.064;2024-02-28T02:16:34;96427.28;;;6.65;nan
34328;BME280;20588;48.840;10.064;2024-02-28T02:19:00;96436.72;;;6.64;nan
34328;BME280;20588;48.840;10.064;2024-02-28T02:21:37;96442.63;;;6.65;nan
34328;BME280;20588;48.840;10.064;2024-02-28T02:24:06;96442.44;;;6.66;nan
34328;BME280;20588;48.840;10.064;2024-02-28T02:26:32;96438.28;;;6.65;nan
34328;BME280;20588;48.840;10.064;2024-02-28T02:28:58;96441.63;;;6.66;nan
34328;BME280;20588;48.840;10.064;2024-02-28T02:31:24;96445.00;;;6.66;nan
34328;BME280;20588;48.840;10.064;2024-02-28T02:33:50;96450.88;;;6.67;nan
34328;BME280;20588;48.840;10.064;2024-02-28T02:36:16;96455.22;;;6.66;nan
34328;BME280;20588;48.840;10.064;2024-02-28T02:38:42;96466.81;;;6.69;nan
34328;BME280;20588;48.840;10.064;2024-02-28T02:41:08;96464.63;;;6.66;nan
34328;BME280;20588;48.840;10.064;2024-02-28T02:43:34;96471.88;;;6.62;nan
34328;BME280;20588;48.840;10.064;2024-02-28T02:46:00;96463.78;;;6.59;nan
34328;BME280;20588;48.840;10.064;2024-02-28T02:48:26;96466.19;;;6.60;nan
34328;BME280;20588;48.840;10.064;2024-02-28T02:50:52;96471.44;;;6.59;nan
34328;BME280;20588;48.840;10.064;2024-02-28T02:53:18;96475.78;;;6.58;nan
34328;BME280;20588;48.840;10.064;2024-02-28T02:55:45;96475.19;;;6.56;nan
34328;BME280;20588;48.840;10.064;2024-02-28T02:58:11;96482.22;;;6.54;nan
34328;BME280;20588;48.840;10.064;2024-02-28T03:00:37;96477.91;;;6.55;nan
34328;BME280;20588;48.840;10.064;2024-02-28T03:03:03;96480.66;;;6.53;nan
34328;BME280;20588;48.840;10.064;2024-02-28T03:05:29;96480.22;;;6.50;nan
34328;BME280;20588;48.840;10.064;2024-02-28T03:07:55;96487.91;;;6.50;nan
34328;BME280;20588;48.840;10.064;2024-02-28T03:10:21;96480.22;;;6.50;nan
34328;BME280;20588;48.840;10.064;2024-02-28T03:12:47;96482.78;;;6.50;nan
34328;BME280;20588;48.840;10.064;2024-02-28T03:15:13;96488.88;;;6.49;nan
34328;BME280;20588;48.840;10.064;2024-02-28T03:17:39;96490.63;;;6.48;nan
34328;BME280;20588;48.840;10.064;2024-02-28T03:20:05;96493.00;;;6.50;nan
34328;BME280;20588;48.840;10.064;2024-02-28T03:22:33;96486.50;;;6.47;nan
34328;BME280;20588;48.840;10.064;2024-02-28T03:24:59;96495.94;;;6.47;nan
34328;BME280;20588;48.840;10.064;2024-02-28T03:27:25;96495.75;;;6.48;nan
34328;BME280;20588;48.840;10.064;2024-02-28T03:29:51;96505.78;;;6.50;nan
34328;BME280;20588;48.840;10.064;2024-02-28T03:32:17;96508.53;;;6.48;nan
34328;BME280;20588;48.840;10.064;2024-02-28T03:34:43;96516.19;;;6.48;nan
34328;BME280;20588;48.840;10.064;2024-02-28T03:37:09;96507.94;;;6.46;nan
34328;BME280;20588;48.840;10.064;2024-02-28T03:39:35;96509.69;;;6.46;nan
34328;BME280;20588;48.840;10.064;2024-02-28T03:42:01;96511.63;;;6.44;nan
34328;BME280;20588;48.840;10.064;2024-02-28T03:44:28;96513.59;;;6.42;nan
34328;BME280;20588;48.840;10.064;2024-02-28T03:46:54;96528.94;;;6.42;nan
34328;BME280;20588;48.840;10.064;2024-02-28T03:49:20;96524.78;;;6.41;nan
34328;BME280;20588;48.840;10.064;2024-02-28T03:51:46;96531.69;;;6.40;nan
34328;BME280;20588;48.840;10.064;2024-02-28T03:54:12;96534.06;;;6.42;nan
34328;BME280;20588;48.840;10.064;2024-02-28T03:56:38;96536.00;;;6.40;nan
34328;BME280;20588;48.840;10.064;2024-02-28T03:59:04;96534.81;;;6.42;nan
34328;BME280;20588;48.840;10.064;2024-02-28T04:01:31;96532.44;;;6.41;nan
34328;BME280;20588;48.840;10.064;2024-02-28T04:03:57;96536.97;;;6.39;nan
34328;BME280;20588;48.840;10.064;2024-02-28T04:06:23;96535.56;;;6.36;nan
34328;BME280;20588;48.840;10.064;2024-02-28T04:08:49;96534.78;;;6.36;nan
34328;BME280;20588;48.840;10.064;2024-02-28T04:11:15;96537.16;;;6.37;nan
34328;BME280;20588;48.840;10.064;2024-02-28T04:13:41;96545.19;;;6.34;nan
34328;BME280;20588;48.840;10.064;2024-02-28T04:16:09;96534.97;;;6.34;nan
34328;BME280;20588;48.840;10.064;2024-02-28T04:18:35;96538.28;;;6.35;nan
34328;BME280;20588;48.840;10.064;2024-02-28T04:21:01;96530.81;;;6.33;nan
34328;BME280;20588;48.840;10.064;2024-02-28T04:23:27;96534.34;;;6.32;nan
34328;BME280;20588;48.840;10.064;2024-02-28T04:25:54;96535.91;;;6.33;nan
34328;BME280;20588;48.840;10.064;2024-02-28T04:28:20;96527.50;;;6.33;nan
34328;BME280;20588;48.840;10.064;2024-02-28T04:30:46;96527.06;;;6.29;nan
34328;BME280;20588;48.840;10.064;2024-02-28T04:33:12;96531.00;;;6.32;nan
34328;BME280;20588;48.840;10.064;2024-02-28T04:35:38;96533.56;;;6.32;nan
34328;BME280;20588;48.840;10.064;2024-02-28T04:38:04;96535.69;;;6.28;nan
34328;BME280;20588;48.840;10.064;2024-02-28T04:40:30;96537.81;;;6.25;nan
34328;BME280;20588;48.840;10.064;2024-02-28T04:42:56;96549.03;;;6.24;nan
34328;BME280;20588;48.840;10.064;2024-02-28T04:45:22;96538.97;;;6.22;nan
34328;BME280;20588;48.840;10.064;2024-02-28T04:47:48;96538.00;;;6.23;nan
34328;BME280;20588;48.840;10.064;2024-02-28T04:50:17;96551.13;;;6.20;nan
34328;BME280;20588;48.840;10.064;2024-02-28T04:52:43;96552.31;;;6.18;nan
34328;BME280;20588;48.840;10.064;2024-02-28T04:55:09;96550.16;;;6.21;nan
34328;BME280;20588;48.840;10.064;2024-02-28T04:57:35;96550.34;;;6.20;nan
34328;BME280;20588;48.840;10.064;2024-02-28T05:00:01;96560.91;;;6.17;nan
34328;BME280;20588;48.840;10.064;2024-02-28T05:02:29;96556.78;;;6.16;nan
34328;BME280;20588;48.840;10.064;2024-02-28T05:04:55;96561.09;;;6.15;nan
34328;BME280;20588;48.840;10.064;2024-02-28T05:07:21;96562.25;;;6.13;nan
34328;BME280;20588;48.840;10.064;2024-02-28T05:09:49;96565.81;;;6.12;nan
34328;BME280;20588;48.840;10.064;2024-02-28T05:12:15;96569.47;;;6.09;nan
34328;BME280;20588;48.840;10.064;2024-02-28T05:14:41;96564.56;;;6.08;nan
34328;BME280;20588;48.840;10.064;2024-02-28T05:17:07;96565.91;;;6.04;nan
34328;BME280;20588;48.840;10.064;2024-02-28T05:19:33;96569.06;;;6.06;nan
34328;BME280;20588;48.840;10.064;2024-02-28T05:21:59;96574.38;;;6.04;nan
34328;BME280;20588;48.840;10.064;2024-02-28T05:24:26;96573.75;;;6.02;nan
34328;BME280;20588;48.840;10.064;2024-02-28T05:26:52;96579.03;;;6.01;nan
34328;BME280;20588;48.840;10.064;2024-02-28T05:29:19;96586.69;;;6.01;nan
34328;BME280;20588;48.840;10.064;2024-02-28T05:31:45;96577.09;;;6.03;nan
34328;BME280;20588;48.840;10.064;2024-02-28T05:34:11;96589.16;;;6.09;nan
34328;BME280;20588;48.840;10.064;2024-02-28T05:36:37;96589.06;;;6.02;nan
34328;BME280;20588;48.840;10.064;2024-02-28T05:39:03;96592.97;;;5.98;nan
34328;BME280;20588;48.840;10.064;2024-02-28T05:41:31;96594.09;;;5.96;nan
34328;BME280;20588;48.840;10.064;2024-02-28T05:43:57;96591.72;;;5.94;nan
34328;BME280;20588;48.840;10.064;2024-02-28T05:46:23;96593.50;;;5.94;nan
34328;BME280;20588;48.840;10.064;2024-02-28T05:48:49;96593.91;;;5.97;nan
34328;BME280;20588;48.840;10.064;2024-02-28T05:51:16;96596.63;;;5.96;nan
34328;BME280;20588;48.840;10.064;2024-02-28T05:53:42;96605.47;;;5.93;nan
34328;BME280;20588;48.840;10.064;2024-02-28T05:56:10;96602.28;;;5.91;nan
34328;BME280;20588;48.840;10.064;2024-02-28T05:58:46;96604.84;;;5.91;nan
34328;BME280;20588;48.840;10.064;2024-02-28T06:01:14;96608.19;;;5.92;nan
34328;BME280;20588;48.840;10.064;2024-02-28T06:03:40;96613.31;;;5.92;nan
34328;BME280;20588;48.840;10.064;2024-02-28T06:06:06;96618.94;;;5.87;nan
34328;BME280;20588;48.840;10.064;2024-02-28T06:08:34;96622.13;;;5.89;nan
34328;BME280;20588;48.840;10.064;2024-02-28T06:11:01;96627.72;;;5.85;nan
34328;BME280;20588;48.840;10.064;2024-02-28T06:13:28;96624.59;;;5.83;nan
34328;BME280;20588;48.840;10.064;2024-02-28T06:15:56;96639.25;;;5.81;nan
34328;BME280;20588;48.840;10.064;2024-02-28T06:18:23;96644.81;;;5.84;nan
34328;BME280;20588;48.840;10.064;2024-02-28T06:20:53;96641.47;;;5.84;nan
34328;BME280;20588;48.840;10.064;2024-02-28T06:23:20;96648.50;;;5.82;nan
34328;BME280;20588;48.840;10.064;2024-02-28T06:25:46;96648.06;;;5.78;nan
34328;BME280;20588;48.840;10.064;2024-02-28T06:28:12;96655.53;;;5.80;nan
34328;BME280;20588;48.840;10.064;2024-02-28T06:30:38;96661.59;;;5.79;nan
34328;BME280;20588;48.840;10.064;2024-02-28T06:33:05;96661.59;;;5.79;nan
34328;BME280;20588;48.840;10.064;2024-02-28T06:35:31;96666.53;;;5.80;nan
34328;BME280;20588;48.840;10.064;2024-02-28T06:37:57;96673.41;;;5.80;nan
34328;BME280;20588;48.840;10.064;2024-02-28T06:40:23;96674.34;;;5.79;nan
34328;BME280;20588;48.840;10.064;2024-02-28T06:42:49;96681.06;;;5.80;nan
34328;BME280;20588;48.840;10.064;2024-02-28T06:45:15;96691.44;;;5.78;nan
34328;BME280;20588;48.840;10.064;2024-02-28T06:47:41;96688.91;;;5.78;nan
34328;BME280;20588;48.840;10.064;2024-02-28T06:50:09;96696.38;;;5.80;nan
34328;BME280;20588;48.840;10.064;2024-02-28T06:52:35;96691.28;;;5.80;nan
34328;BME280;20588;48.840;10.064;2024-02-28T06:55:01;96696.22;;;5.81;nan
34328;BME280;20588;48.840;10.064;2024-02-28T06:57:34;96695.25;;;5.82;nan
34328;BME280;20588;48.840;10.064;2024-02-28T07:00:00;96707.66;;;5.85;nan
34328;BME280;20588;48.840;10.064;2024-02-28T07:02:26;96702.38;;;5.87;nan
34328;BME280;20588;48.840;10.064;2024-02-28T07:04:52;96709.69;;;5.90;nan
34328;BME280;20588;48.840;10.064;2024-02-28T07:07:19;96710.50;;;5.90;nan
34328;BME280;20588;48.840;10.064;2024-02-28T07:09:45;96705.22;;;5.92;nan
34328;BME280;20588;48.840;10.064;2024-02-28T07:12:11;96713.16;;;5.97;nan
34328;BME280;20588;48.840;10.064;2024-02-28T07:14:37;96711.03;;;6.00;nan
34328;BME280;20588;48.840;10.064;2024-02-28T07:17:03;96714.47;;;6.07;nan
34328;BME280;20588;48.840;10.064;2024-02-28T07:19:29;96715.50;;;6.13;nan
34328;BME280;20588;48.840;10.064;2024-02-28T07:21:55;96726.00;;;6.18;nan
34328;BME280;20588;48.840;10.064;2024-02-28T07:24:21;96722.66;;;6.17;nan
34328;BME280;20588;48.840;10.064;2024-02-28T07:26:47;96724.66;;;6.22;nan
34328;BME280;20588;48.840;10.064;2024-02-28T07:29:14;96728.97;;;6.21;nan
34328;BME280;20588;48.840;10.064;2024-02-28T07:31:40;96728.97;;;6.21;nan
34328;BME280;20588;48.840;10.064;2024-02-28T07:34:06;96730.59;;;6.22;nan
34328;BME280;20588;48.840;10.064;2024-02-28T07:36:33;96737.44;;;6.22;nan
34328;BME280;20588;48.840;10.064;2024-02-28T07:39:00;96740.28;;;6.27;nan
34328;BME280;20588;48.840;10.064;2024-02-28T07:41:26;96738.25;;;6.22;nan
34328;BME280;20588;48.840;10.064;2024-02-28T07:43:53;96735.88;;;6.21;nan
34328;BME280;20588;48.840;10.064;2024-02-28T07:46:19;96736.47;;;6.23;nan
34328;BME280;20588;48.840;10.064;2024-02-28T07:48:45;96744.75;;;6.25;nan
34328;BME280;20588;48.840;10.064;2024-02-28T07:51:11;96742.13;;;6.33;nan
34328;BME280;20588;48.840;10.064;2024-02-28T07:53:37;96741.41;;;6.39;nan
34328;BME280;20588;48.840;10.064;2024-02-28T07:56:03;96744.91;;;6.52;nan
34328;BME280;20588;48.840;10.064;2024-02-28T07:58:30;96745.94;;;6.58;nan
34328;BME280;20588;48.840;10.064;2024-02-28T08:00:56;96744.44;;;6.63;nan
34328;BME280;20588;48.840;10.064;2024-02-28T08:03:22;96750.88;;;6.74;nan
34328;BME280;20588;48.840;10.064;2024-02-28T08:05:48;96749.34;;;6.79;nan
34328;BME280;20588;48.840;10.064;2024-02-28T08:08:14;96750.38;;;6.85;nan
34328;BME280;20588;48.840;10.064;2024-02-28T08:10:41;96752.09;;;6.99;nan
34328;BME280;20588;48.840;10.064;2024-02-28T08:13:07;96756.84;;;7.02;nan
34328;BME280;20588;48.840;10.064;2024-02-28T08:15:35;96755.31;;;7.07;nan
34328;BME280;20588;48.840;10.064;2024-02-28T08:18:02;96759.72;;;7.13;nan
34328;BME280;20588;48.840;10.064;2024-02-28T08:20:28;96760.50;;;7.14;nan
34328;BME280;20588;48.840;10.064;2024-02-28T08:22:54;96756.97;;;7.15;nan
34328;BME280;20588;48.840;10.064;2024-02-28T08:25:22;96760.78;;;7.19;nan
34328;BME280;20588;48.840;10.064;2024-02-28T08:27:49;96764.28;;;7.18;nan
34328;BME280;20588;48.840;10.064;2024-02-28T08:30:15;96764.09;;;7.19;nan
34328;BME280;20588;48.840;10.064;2024-02-28T08:32:41;96768.50;;;7.25;nan
34328;BME280;20588;48.840;10.064;2024-02-28T08:35:09;96763.00;;;7.28;nan
34328;BME280;20588;48.840;10.064;2024-02-28T08:37:39;96771.13;;;7.32;nan
34328;BME280;20588;48.840;10.064;2024-02-28T08:40:06;96768.19;;;7.35;nan
34328;BME280;20588;48.840;10.064;2024-02-28T08:42:32;96773.13;;;7.36;nan
34328;BME280;20588;48.840;10.064;2024-02-28T08:44:59;96774.28;;;7.34;nan
34328;BME280;20588;48.840;10.064;2024-02-28T08:47:26;96773.44;;;7.27;nan
34328;BME280;20588;48.840;10.064;2024-02-28T08:49:53;96779.09;;;7.22;nan
34328;BME280;20588;48.840;10.064;2024-02-28T08:52:20;96779.28;;;7.21;nan
34328;BME280;20588;48.840;10.064;2024-02-28T08:54:46;96787.69;;;7.15;nan
34328;BME280;20588;48.840;10.064;2024-02-28T08:57:13;96784.72;;;7.11;nan
34328;BME280;20588;48.840;10.064;2024-02-28T08:59:39;96782.16;;;7.11;nan
34328;BME280;20588;48.840;10.064;2024-02-28T09:02:09;96783.28;;;7.09;nan
34328;BME280;20588;48.840;10.064;2024-02-28T09:04:37;96787.63;;;7.08;nan
34328;BME280;20588;48.840;10.064;2024-02-28T09:07:03;96784.88;;;7.10;nan
34328;BME280;20588;48.840;10.064;2024-02-28T09:09:29;96783.09;;;7.10;nan
34328;BME280;20588;48.840;10.064;2024-02-28T09:11:58;96791.22;;;7.14;nan
34328;BME280;20588;48.840;10.064;2024-02-28T09:14:24;96788.41;;;7.09;nan
34328;BME280;20588;48.840;10.064;2024-02-28T09:16:50;96790.00;;;7.10;nan
34328;BME280;20588;48.840;10.064;2024-02-28T09:19:16;96787.09;;;7.13;nan
34328;BME280;20588;48.840;10.064;2024-02-28T09:21:43;96790.41;;;7.13;nan
34328;BME280;20588;48.840;10.064;2024-02-28T09:24:09;96797.91;;;7.15;nan
34328;BME280;20588;48.840;10.064;2024-02-28T09:26:39;96792.97;;;7.13;nan
34328;BME280;20588;48.840;10.064;2024-02-28T09:29:05;96798.78;;;7.22;nan
34328;BME280;20588;48.840;10.064;2024-02-28T09:31:31;96795.06;;;7.24;nan
34328;BME280;20588;48.840;10.064;2024-02-28T09:33:57;96797.25;;;7.27;nan
34328;BME280;20588;48.840;10.064;2024-02-28T09:36:24;96803.78;;;7.30;nan
34328;BME280;20588;48.840;10.064;2024-02-28T09:38:50;96797.16;;;7.35;nan
34328;BME280;20588;48.840;10.064;2024-02-28T09:41:16;96800.72;;;7.41;nan
34328;BME280;20588;48.840;10.064;2024-02-28T09:43:42;96800.16;;;7.39;nan
34328;BME280;20588;48.840;10.064;2024-02-28T09:46:10;96810.03;;;7.42;nan
34328;BME280;20588;48.840;10.064;2024-02-28T09:48:42;96812.59;;;7.42;nan
34328;BME280;20588;48.840;10.064;2024-02-28T09:51:11;96813.53;;;7.41;nan
34328;BME280;20588;48.840;10.064;2024-02-28T09:53:39;96813.53;;;7.41;nan
34328;BME280;20588;48.840;10.064;2024-02-28T09:56:07;96812.59;;;7.42;nan
34328;BME280;20588;48.840;10.064;2024-02-28T09:58:34;96818.28;;;7.44;nan
34328;BME280;20588;48.840;10.064;2024-02-28T10:01:02;96816.59;;;7.51;nan
34328;BME280;20588;48.840;10.064;2024-02-28T10:03:30;96820.13;;;7.50;nan
34328;BME280;20588;48.840;10.064;2024-02-28T10:05:56;96816.34;;;7.46;nan
34328;BME280;20588;48.840;10.064;2024-02-28T10:08:22;96824.94;;;7.38;nan
34328;BME280;20588;48.840;10.064;2024-02-28T10:10:49;96824.50;;;7.35;nan
34328;BME280;20588;48.840;10.064;2024-02-28T10:13:18;96830.88;;;7.39;nan
34328;BME280;20588;48.840;10.064;2024-02-28T10:15:44;96834.63;;;7.43;nan
34328;BME280;20588;48.840;10.064;2024-02-28T10:18:11;96838.00;;;7.44;nan
34328;BME280;20588;48.840;10.064;2024-02-28T10:20:37;96842.13;;;7.45;nan
34328;BME280;20588;48.840;10.064;2024-02-28T10:23:08;96840.38;;;7.45;nan
34328;BME280;20588;48.840;10.064;2024-02-28T10:25:47;96843.16;;;7.50;nan
34328;BME280;20588;48.840;10.064;2024-02-28T10:28:14;96839.69;;;7.58;nan
34328;BME280;20588;48.840;10.064;2024-02-28T10:30:44;96841.22;;;7.73;nan
34328;BME280;20588;48.840;10.064;2024-02-28T10:33:11;96843.50;;;7.89;nan
34328;BME280;20588;48.840;10.064;2024-02-28T10:35:40;96844.84;;;8.06;nan
34328;BME280;20588;48.840;10.064;2024-02-28T10:38:06;96854.94;;;8.14;nan
34328;BME280;20588;48.840;10.064;2024-02-28T10:40:32;96851.47;;;8.22;nan
34328;BME280;20588;48.840;10.064;2024-02-28T10:43:00;96853.31;;;8.28;nan
34328;BME280;20588;48.840;10.064;2024-02-28T10:45:28;96848.63;;;8.38;nan
34328;BME280;20588;48.840;10.064;2024-02-28T10:47:57;96845.59;;;8.55;nan
34328;BME280;20588;48.840;10.064;2024-02-28T10:50:23;96836.25;;;8.82;nan
34328;BME280;20588;48.840;10.064;2024-02-28T10:52:51;96841.88;;;9.05;nan
34328;BME280;20588;48.840;10.064;2024-02-28T10:55:23;96839.22;;;9.33;nan
34328;BME280;20588;48.840;10.064;2024-02-28T10:58:07;96842.63;;;9.66;nan
34328;BME280;20588;48.840;10.064;2024-02-28T11:00:35;96844.03;;;9.94;nan
34328;BME280;20588;48.840;10.064;2024-02-28T11:03:02;96847.63;;;10.13;nan
34328;BME280;20588;48.840;10.064;2024-02-28T11:05:39;96846.63;;;10.27;nan
34328;BME280;20588;48.840;10.064;2024-02-28T11:10:35;96863.22;;;10.24;nan
34328;BME280;20588;48.840;10.064;2024-02-28T11:13:02;96866.22;;;10.21;nan
34328;BME280;20588;48.840;10.064;2024-02-28T11:15:28;96857.69;;;10.27;nan
34328;BME280;20588;48.840;10.064;2024-02-28T11:17:54;96856.69;;;10.35;nan
34328;BME280;20588;48.840;10.064;2024-02-28T11:20:20;96856.28;;;10.38;nan
34328;BME280;20588;48.840;10.064;2024-02-28T11:22:48;96861.44;;;10.38;nan
34328;BME280;20588;48.840;10.064;2024-02-28T11:25:15;96855.94;;;10.34;nan
34328;BME280;20588;48.840;10.064;2024-02-28T11:27:48;96864.25;;;10.30;nan
34328;BME280;20588;48.840;10.064;2024-02-28T11:30:14;96870.34;;;10.22;nan
34328;BME280;20588;48.840;10.064;2024-02-28T11:32:42;96864.44;;;10.22;nan
34328;BME280;20588;48.840;10.064;2024-02-28T11:35:09;96859.88;;;10.11;nan
34328;BME280;20588;48.840;10.064;2024-02-28T11:37:35;96856.09;;;9.94;nan
34328;BME280;20588;48.840;10.064;2024-02-28T11:40:01;96857.06;;;9.93;nan
34328;BME280;20588;48.840;10.064;2024-02-28T11:42:27;96851.75;;;10.01;nan
34328;BME280;20588;48.840;10.064;2024-02-28T11:44:55;96852.38;;;10.09;nan
34328;BME280;20588;48.840;10.064;2024-02-28T11:47:22;96857.09;;;10.12;nan
34328;BME280;20588;48.840;10.064;2024-02-28T11:49:49;96853.75;;;10.12;nan
34328;BME280;20588;48.840;10.064;2024-02-28T11:52:15;96859.47;;;10.07;nan
34328;BME280;20588;48.840;10.064;2024-02-28T11:54:41;96861.84;;;10.02;nan
34328;BME280;20588;48.840;10.064;2024-02-28T11:57:08;96872.31;;;10.01;nan
34328;BME280;20588;48.840;10.064;2024-02-28T11:59:37;96867.16;;;9.94;nan
34328;BME280;20588;48.840;10.064;2024-02-28T12:02:12;96863.41;;;9.90;nan
34328;BME280;20588;48.840;10.064;2024-02-28T12:04:39;96870.72;;;9.87;nan
34328;BME280;20588;48.840;10.064;2024-02-28T12:07:06;96871.09;;;9.84;nan
34328;BME280;20588;48.840;10.064;2024-02-28T12:09:32;96864.59;;;9.81;nan
34328;BME280;20588;48.840;10.064;2024-02-28T12:12:01;96870.13;;;9.78;nan
34328;BME280;20588;48.840;10.064;2024-02-28T12:14:27;96860.63;;;9.72;nan
34328;BME280;20588;48.840;10.064;2024-02-28T12:16:53;96861.59;;;9.71;nan
34328;BME280;20588;48.840;10.064;2024-02-28T12:19:19;96860.22;;;9.69;nan
34328;BME280;20588;48.840;10.064;2024-02-28T12:21:46;96864.38;;;9.70;nan
34328;BME280;20588;48.840;10.064;2024-02-28T12:24:12;96867.31;;;9.67;nan
34328;BME280;20588;48.840;10.064;2024-02-28T12:26:39;96859.41;;;9.68;nan
34328;BME280;20588;48.840;10.064;2024-02-28T12:29:05;96863.78;;;9.68;nan
34328;BME280;20588;48.840;10.064;2024-02-28T12:31:31;96858.84;;;9.66;nan
34328;BME280;20588;48.840;10.064;2024-02-28T12:33:57;96849.16;;;9.62;nan
34328;BME280;20588;48.840;10.064;2024-02-28T12:36:25;96853.31;;;9.69;nan
34328;BME280;20588;48.840;10.064;2024-02-28T12:38:52;96849.38;;;9.80;nan
34328;BME280;20588;48.840;10.064;2024-02-28T12:41:18;96847.97;;;9.84;nan
34328;BME280;20588;48.840;10.064;2024-02-28T12:43:44;96842.84;;;9.97;nan
34328;BME280;20588;48.840;10.064;2024-02-28T12:46:10;96846.63;;;10.01;nan
34328;BME280;20588;48.840;10.064;2024-02-28T12:48:40;96852.31;;;10.03;nan
34328;BME280;20588;48.840;10.064;2024-02-28T12:54:03;96844.16;;;9.47;nan
34328;BME280;20588;48.840;10.064;2024-02-28T12:56:29;96845.81;;;9.07;nan
34328;BME280;20588;48.840;10.064;2024-02-28T12:58:55;96847.41;;;9.02;nan
34328;BME280;20588;48.840;10.064;2024-02-28T13:01:21;96847.84;;;9.18;nan
34328;BME280;20588;48.840;10.064;2024-02-28T13:03:47;96849.66;;;9.31;nan
34328;BME280;20588;48.840;10.064;2024-02-28T13:06:14;96847.69;;;9.27;nan
34328;BME280;20588;48.840;10.064;2024-02-28T13:08:41;96846.31;;;9.44;nan
34328;BME280;20588;48.840;10.064;2024-02-28T13:11:07;96854.41;;;9.41;nan
34328;BME280;20588;48.840;10.064;2024-02-28T13:13:33;96848.09;;;9.37;nan
34328;BME280;20588;48.840;10.064;2024-02-28T13:15:59;96846.13;;;9.45;nan
34328;BME280;20588;48.840;10.064;2024-02-28T13:18:25;96851.91;;;9.54;nan
34328;BME280;20588;48.840;10.064;2024-02-28T13:20:52;96844.41;;;9.59;nan
34328;BME280;20588;48.840;10.064;2024-02-28T13:23:18;96839.63;;;9.43;nan
34328;BME280;20588;48.840;10.064;2024-02-28T13:25:47;96838.44;;;9.52;nan